createdAt,value
2018-11-07T00:01:32.046Z,61.03
2018-11-07T00:04:18.937Z,51.67
2018-11-07T00:07:07.117Z,61.20
2018-11-07T00:09:56.203Z,54.17
2018-11-07T00:12:25.705Z,61.93
2018-11-07T00:14:55.869Z,52.47
2018-11-07T00:17:25.957Z,56.03
2018-11-07T00:19:56.079Z,56.40
2018-11-07T00:22:44.244Z,66.00
2018-11-07T00:25:13.886Z,63.30
2018-11-07T00:27:43.488Z,51.67
2018-11-07T00:30:13.108Z,56.77
2018-11-07T00:32:42.851Z,55.50
2018-11-07T00:35:12.851Z,56.70
2018-11-07T00:37:43.327Z,49.87
2018-11-07T00:40:13.433Z,58.53
2018-11-07T00:43:01.874Z,54.43
2018-11-07T00:45:31.825Z,52.40
2018-11-07T00:48:21.367Z,53.37
2018-11-07T00:50:51.198Z,59.07
2018-11-07T00:53:39.601Z,52.00
2018-11-07T00:56:09.145Z,58.37
2018-11-07T00:58:39.258Z,50.10
2018-11-07T01:01:27.994Z,52.87
2018-11-07T01:03:57.808Z,46.57
2018-11-07T01:06:27.631Z,52.23
2018-11-07T01:09:16.116Z,46.10
2018-11-07T01:11:45.615Z,49.60
2018-11-07T01:14:15.201Z,47.53
2018-11-07T01:16:44.743Z,50.40
2018-11-07T01:19:15.437Z,42.87
2018-11-07T01:21:45.733Z,49.93
2018-11-07T01:24:33.914Z,43.77
2018-11-07T01:27:22.377Z,43.83
2018-11-07T01:29:52.815Z,44.50
2018-11-07T01:32:22.262Z,45.80
2018-11-07T01:34:52.327Z,47.90
2018-11-07T01:37:22.931Z,49.47
2018-11-07T01:39:52.742Z,46.30
2018-11-07T01:42:22.854Z,48.70
2018-11-07T01:45:11.016Z,40.10
2018-11-07T01:47:48.287Z,49.40
2018-11-07T01:50:18.062Z,38.10
2018-11-07T01:53:06.511Z,48.93
2018-11-07T01:55:55.222Z,49.10
2018-11-07T01:58:24.811Z,47.43
2018-11-07T02:00:54.244Z,44.37
2018-11-07T02:03:23.710Z,42.37
2018-11-07T02:06:12.196Z,47.20
2018-11-07T02:09:00.902Z,47.67
2018-11-07T02:11:30.356Z,42.20
2018-11-07T02:13:59.810Z,41.30
2018-11-07T02:16:48.272Z,55.53
2018-11-07T02:19:17.736Z,45.30
2018-11-07T02:22:06.246Z,58.93
2018-11-07T02:24:54.898Z,48.03
2018-11-07T02:27:24.642Z,51.10
2018-11-07T02:30:13.294Z,50.50
2018-11-07T02:33:01.682Z,48.90
2018-11-07T02:35:31.782Z,49.60
2018-11-07T02:38:02.052Z,48.63
2018-11-07T02:40:31.580Z,50.77
2018-11-07T02:43:01.938Z,60.23
2018-11-07T02:45:32.043Z,50.07
2018-11-07T02:48:20.516Z,46.60
2018-11-07T02:51:08.904Z,54.03
2018-11-07T02:53:57.439Z,49.63
2018-11-07T02:56:27.307Z,53.00
2018-11-07T02:58:56.850Z,48.93
2018-11-07T03:01:26.810Z,48.83
2018-11-07T03:03:56.783Z,45.63
2018-11-07T03:06:45.504Z,56.93
2018-11-07T03:09:15.576Z,43.67
2018-11-07T03:12:04.368Z,42.23
2018-11-07T03:14:33.970Z,49.43
2018-11-07T03:17:03.786Z,42.90
2018-11-07T03:19:33.906Z,43.77
2018-11-07T03:22:03.634Z,42.50
2018-11-07T03:24:33.083Z,39.23
2018-11-07T03:27:02.944Z,44.13
2018-11-07T03:29:51.382Z,41.13
2018-11-07T03:32:20.859Z,52.57
2018-11-07T03:34:51.008Z,45.20
2018-11-07T03:37:20.529Z,40.93
2018-11-07T03:40:09.241Z,38.27
2018-11-07T03:42:39.038Z,45.83
2018-11-07T03:45:08.510Z,41.00
2018-11-07T03:47:38.050Z,44.67
2018-11-07T03:50:26.216Z,40.37
2018-11-07T03:53:14.690Z,45.50
2018-11-07T03:56:03.183Z,51.17
2018-11-07T03:58:51.848Z,62.40
2018-11-07T04:01:21.303Z,51.90
2018-11-07T04:04:09.994Z,59.17
2018-11-07T04:06:39.526Z,58.23
2018-11-07T04:09:11.820Z,75.50
2018-11-07T04:11:41.657Z,88.07
2018-11-07T04:14:11.416Z,97.70
2018-11-07T04:16:41.188Z,89.47
2018-11-07T04:19:29.579Z,83.43
2018-11-07T04:21:59.106Z,73.57
2018-11-07T04:24:28.939Z,69.77
2018-11-07T04:26:59.212Z,74.93
2018-11-07T04:29:28.603Z,77.83
2018-11-07T04:31:58.872Z,82.13
2018-11-07T04:34:28.365Z,79.57
2018-11-07T04:36:58.260Z,77.13
2018-11-07T04:39:46.957Z,79.37
2018-11-07T04:42:35.343Z,77.93
2018-11-07T04:45:23.787Z,75.43
2018-11-07T04:48:11.928Z,83.87
2018-11-07T04:50:41.387Z,84.73
2018-11-07T04:53:11.154Z,80.03
2018-11-07T04:55:40.984Z,63.30
2018-11-07T04:58:10.693Z,78.47
2018-11-07T05:00:40.820Z,73.33
2018-11-07T05:03:10.604Z,76.07
2018-11-07T05:05:40.748Z,71.60
2018-11-07T05:08:10.228Z,76.47
2018-11-07T05:10:40.042Z,66.93
2018-11-07T05:13:09.496Z,69.97
2018-11-07T05:15:38.948Z,83.70
2018-11-07T05:18:27.825Z,73.50
2018-11-07T05:20:57.564Z,72.93
2018-11-07T05:23:27.102Z,89.47
2018-11-07T05:26:16.012Z,88.20
2018-11-07T05:28:45.657Z,77.83
2018-11-07T05:31:15.469Z,82.80
2018-11-07T05:33:45.239Z,78.67
2018-11-07T05:36:15.056Z,88.37
2018-11-07T05:38:44.845Z,78.50
2018-11-07T05:41:14.673Z,76.47
2018-11-07T05:43:44.369Z,74.33
2018-11-07T05:46:14.185Z,75.77
2018-11-07T05:48:43.681Z,74.77
2018-11-07T05:51:32.064Z,68.63
2018-11-07T05:54:01.843Z,76.87
2018-11-07T05:56:31.760Z,70.60
2018-11-07T05:59:19.909Z,81.07
2018-11-07T06:01:49.384Z,85.60
2018-11-07T06:04:20.277Z,66.97
2018-11-07T06:06:50.192Z,75.13
2018-11-07T06:09:38.323Z,79.97
2018-11-07T06:12:08.123Z,75.50
2018-11-07T06:14:38.177Z,78.80
2018-11-07T06:17:08.051Z,73.67
2018-11-07T06:19:37.486Z,75.43
2018-11-07T06:22:07.175Z,70.73
2018-11-07T06:24:36.666Z,84.20
2018-11-07T06:27:06.123Z,71.10
2018-11-07T06:29:35.560Z,75.23
2018-11-07T06:32:05.433Z,69.42
2018-11-07T06:34:35.345Z,70.17
2018-11-07T06:37:23.456Z,66.00
2018-11-07T06:40:11.573Z,73.70
2018-11-07T06:42:59.732Z,60.37
2018-11-07T06:45:29.851Z,68.17
2018-11-07T06:48:17.970Z,65.50
2018-11-07T06:51:06.158Z,60.23
2018-11-07T06:53:35.612Z,57.30
2018-11-07T06:56:05.478Z,79.23
2018-11-07T06:58:35.870Z,61.10
2018-11-07T07:01:24.439Z,57.47
2018-11-07T07:03:54.228Z,56.77
2018-11-07T07:06:42.665Z,72.53
2018-11-07T07:09:31.924Z,58.70
2018-11-07T07:12:01.708Z,79.43
2018-11-07T07:14:50.208Z,67.73
2018-11-07T07:17:39.387Z,59.93
2018-11-07T07:20:31.314Z,67.00
2018-11-07T07:23:01.367Z,67.93
2018-11-07T07:25:31.863Z,62.63
2018-11-07T07:28:20.224Z,64.47
2018-11-07T07:30:50.021Z,60.57
2018-11-07T07:33:19.569Z,64.20
2018-11-07T07:36:07.997Z,63.93
2018-11-07T07:38:38.037Z,71.20
2018-11-07T07:41:07.487Z,61.67
2018-11-07T07:43:37.038Z,71.50
2018-11-07T07:46:07.259Z,66.47
2018-11-07T07:48:37.495Z,68.40
2018-11-07T07:51:25.715Z,67.67
2018-11-07T07:53:55.217Z,91.70
2018-11-07T07:56:24.723Z,70.90
2018-11-07T07:59:13.187Z,77.77
2018-11-07T08:02:01.914Z,64.33
2018-11-07T08:04:31.730Z,74.57
2018-11-07T08:07:19.840Z,71.93
2018-11-07T08:09:50.003Z,62.97
2018-11-07T08:12:19.781Z,61.43
2018-11-07T08:14:49.597Z,53.93
2018-11-07T08:17:19.046Z,62.07
2018-11-07T08:19:49.601Z,78.97
2018-11-07T08:22:19.500Z,62.63
2018-11-07T08:24:49.738Z,57.20
2018-11-07T08:27:19.712Z,59.00
2018-11-07T08:29:49.430Z,61.20
2018-11-07T08:32:38.164Z,53.47
2018-11-07T08:35:27.569Z,62.33
2018-11-07T08:37:58.820Z,52.13
2018-11-07T08:40:28.572Z,49.30
2018-11-07T08:42:58.394Z,48.90
2018-11-07T08:45:27.823Z,48.20
2018-11-07T08:48:16.060Z,52.97
2018-11-07T08:51:04.376Z,47.23
2018-11-07T08:53:52.802Z,42.03
2018-11-07T08:56:22.255Z,44.07
2018-11-07T08:58:51.737Z,47.93
2018-11-07T09:01:21.519Z,43.63
2018-11-07T09:03:51.593Z,44.43
2018-11-07T09:06:21.466Z,62.60
2018-11-07T09:09:09.616Z,57.77
2018-11-07T09:11:39.860Z,51.23
2018-11-07T09:14:09.503Z,54.47
2018-11-07T09:16:39.796Z,54.07
2018-11-07T09:19:09.249Z,45.50
2018-11-07T09:21:39.516Z,45.53
2018-11-07T09:24:09.540Z,52.30
2018-11-07T09:26:58.072Z,46.77
2018-11-07T09:29:27.865Z,49.60
2018-11-07T09:31:57.698Z,46.73
2018-11-07T09:34:27.200Z,42.73
2018-11-07T09:37:15.386Z,47.53
2018-11-07T09:39:45.583Z,58.57
2018-11-07T09:42:15.453Z,38.87
2018-11-07T09:45:04.009Z,35.03
2018-11-07T09:47:52.401Z,42.23
2018-11-07T09:50:40.822Z,38.53
2018-11-07T09:53:10.981Z,41.67
2018-11-07T09:55:59.160Z,44.27
2018-11-07T09:58:47.840Z,42.10
2018-11-07T10:01:18.008Z,38.10
2018-11-07T10:03:47.446Z,42.57
2018-11-07T10:06:16.895Z,35.80
2018-11-07T10:09:05.308Z,43.40
2018-11-07T10:11:53.731Z,42.53
2018-11-07T10:14:42.522Z,42.70
2018-11-07T10:17:30.676Z,47.27
2018-11-07T10:20:00.414Z,40.27
2018-11-07T10:22:30.250Z,44.20
2018-11-07T10:25:00.246Z,35.47
2018-11-07T10:27:49.323Z,35.50
2018-11-07T10:30:20.488Z,38.20
2018-11-07T10:32:50.560Z,40.00
2018-11-07T10:35:20.058Z,38.20
2018-11-07T10:37:49.646Z,40.77
2018-11-07T10:40:23.340Z,39.00
2018-11-07T10:42:53.083Z,45.40
2018-11-07T10:45:22.558Z,31.80
2018-11-07T10:47:52.509Z,29.93
2018-11-07T10:50:22.633Z,31.60
2018-11-07T10:52:52.332Z,36.50
2018-11-07T10:55:22.406Z,37.73
2018-11-07T10:57:51.898Z,30.73
2018-11-07T11:00:38.629Z,28.03
2018-11-07T11:03:25.518Z,37.90
2018-11-07T11:05:55.317Z,28.63
2018-11-07T11:08:25.900Z,24.50
2018-11-07T11:10:55.425Z,25.93
2018-11-07T11:13:25.601Z,28.37
2018-11-07T11:15:55.103Z,27.90
2018-11-07T11:18:24.575Z,27.50
2018-11-07T11:20:54.015Z,14.53
2018-11-07T11:23:23.827Z,24.17
2018-11-07T11:25:53.634Z,23.73
2018-11-07T11:28:23.724Z,17.40
2018-11-07T11:30:53.935Z,15.63
2018-11-07T11:33:23.666Z,23.97
2018-11-07T11:35:53.711Z,15.10
2018-11-07T11:38:23.201Z,17.70
2018-11-07T11:40:52.855Z,21.13
2018-11-07T11:43:22.923Z,18.83
2018-11-07T11:45:52.663Z,24.07
2018-11-07T11:48:22.604Z,21.87
2018-11-07T11:50:52.581Z,27.00
2018-11-07T11:53:22.366Z,20.90
2018-11-07T11:55:52.891Z,20.13
2018-11-07T11:58:22.759Z,23.47
2018-11-07T12:00:52.233Z,20.83
2018-11-07T12:03:22.024Z,16.57
2018-11-07T12:05:52.859Z,13.40
2018-11-07T12:08:22.827Z,14.63
2018-11-07T12:10:52.179Z,16.40
2018-11-07T12:13:22.007Z,18.07
2018-11-07T12:15:51.724Z,13.20
2018-11-07T12:18:21.186Z,17.60
2018-11-07T12:20:51.327Z,15.30
2018-11-07T12:23:21.077Z,13.03
2018-11-07T12:25:51.116Z,12.33
2018-11-07T12:28:20.568Z,15.20
2018-11-07T12:30:50.316Z,13.07
2018-11-07T12:33:20.144Z,13.50
2018-11-07T12:35:50.986Z,21.10
2018-11-07T12:38:21.091Z,16.20
2018-11-07T12:40:51.266Z,15.27
2018-11-07T12:43:21.482Z,17.43
2018-11-07T12:45:50.991Z,14.93
2018-11-07T12:48:20.423Z,12.60
2018-11-07T12:50:49.908Z,9.00
2018-11-07T12:53:20.011Z,10.33
2018-11-07T12:55:49.450Z,17.20
2018-11-07T12:58:19.417Z,12.43
2018-11-07T13:00:49.360Z,12.00
2018-11-07T13:03:19.528Z,34.00
2018-11-07T13:05:49.714Z,9.67
2018-11-07T13:08:19.881Z,8.57
2018-11-07T13:10:49.722Z,9.53
2018-11-07T13:13:19.159Z,6.20
2018-11-07T13:15:49.027Z,11.60
2018-11-07T13:18:18.786Z,10.70
2018-11-07T13:20:48.637Z,11.67
2018-11-07T13:23:18.052Z,10.10
2018-11-07T13:25:48.782Z,7.43
2018-11-07T13:28:18.787Z,13.03
2018-11-07T13:30:48.745Z,26.23
2018-11-07T13:33:18.662Z,25.10
2018-11-07T13:35:48.097Z,12.60
2018-11-07T13:38:18.784Z,13.77
2018-11-07T13:40:48.047Z,17.43
2018-11-07T13:43:17.473Z,10.70
2018-11-07T13:45:48.396Z,12.00
2018-11-07T13:48:17.754Z,20.00
2018-11-07T13:50:47.239Z,11.87
2018-11-07T13:53:16.729Z,14.13
2018-11-07T13:55:48.719Z,16.53
2018-11-07T13:58:18.539Z,15.20
2018-11-07T14:00:48.782Z,11.47
2018-11-07T14:03:18.400Z,22.17
2018-11-07T14:05:48.024Z,16.53
2018-11-07T14:08:17.836Z,19.80
2018-11-07T14:10:47.734Z,14.20
2018-11-07T14:13:17.194Z,15.80
2018-11-07T14:15:47.047Z,13.27
2018-11-07T14:18:16.497Z,16.70
2018-11-07T14:20:46.259Z,13.10
2018-11-07T14:23:16.022Z,13.03
2018-11-07T14:25:45.785Z,13.60
2018-11-07T14:28:15.590Z,15.33
2018-11-07T14:30:45.132Z,14.30
2018-11-07T14:33:14.946Z,16.27
2018-11-07T14:35:45.690Z,14.70
2018-11-07T14:38:15.185Z,14.90
2018-11-07T14:40:45.412Z,24.10
2018-11-07T14:43:14.955Z,15.40
2018-11-07T14:45:45.171Z,15.60
2018-11-07T14:48:15.072Z,23.97
2018-11-07T14:50:44.523Z,15.60
2018-11-07T14:53:14.490Z,17.80
2018-11-07T14:55:44.020Z,11.97
2018-11-07T14:58:13.890Z,20.87
2018-11-07T15:00:43.851Z,14.47
2018-11-07T15:03:13.326Z,20.50
2018-11-07T15:05:43.004Z,22.10
2018-11-07T15:08:12.378Z,18.03
2018-11-07T15:10:42.191Z,13.17
2018-11-07T15:13:12.045Z,16.30
2018-11-07T15:15:41.533Z,15.30
2018-11-07T15:18:11.062Z,18.13
2018-11-07T15:20:40.838Z,15.07
2018-11-07T15:23:10.614Z,18.03
2018-11-07T15:25:40.367Z,18.47
2018-11-07T15:28:09.832Z,31.87
2018-11-07T15:30:39.816Z,19.67
2018-11-07T15:33:09.365Z,26.60
2018-11-07T15:35:40.126Z,19.83
2018-11-07T15:38:09.980Z,24.57
2018-11-07T15:40:40.112Z,15.70
2018-11-07T15:43:09.943Z,15.33
2018-11-07T15:45:39.778Z,13.67
2018-11-07T15:48:10.046Z,23.13
2018-11-07T15:50:57.447Z,17.30
2018-11-07T15:53:27.724Z,21.37
2018-11-07T15:55:57.170Z,20.87
2018-11-07T15:58:26.652Z,15.60
2018-11-07T16:00:56.889Z,27.67
2018-11-07T16:03:44.296Z,18.00
2018-11-07T16:06:13.912Z,23.90
2018-11-07T16:08:43.851Z,20.77
2018-11-07T16:11:14.214Z,19.37
2018-11-07T16:13:44.000Z,23.37
2018-11-07T16:16:14.259Z,23.57
2018-11-07T16:18:44.009Z,25.33
2018-11-07T16:21:14.112Z,17.33
2018-11-07T16:23:44.371Z,19.97
2018-11-07T16:26:14.246Z,23.23
2018-11-07T16:28:44.141Z,29.57
2018-11-07T16:31:14.285Z,23.00
2018-11-07T16:33:44.760Z,21.30
2018-11-07T16:36:14.521Z,15.90
2018-11-07T16:38:44.489Z,20.33
2018-11-07T16:41:14.319Z,22.33
2018-11-07T16:43:43.861Z,16.67
2018-11-07T16:46:13.642Z,25.30
2018-11-07T16:48:43.376Z,15.50
2018-11-07T16:51:13.681Z,19.70
2018-11-07T16:53:43.582Z,21.40
2018-11-07T16:56:13.385Z,25.73
2018-11-07T16:58:43.527Z,28.90
2018-11-07T17:01:13.270Z,21.57
2018-11-07T17:03:43.071Z,28.03
2018-11-07T17:06:13.334Z,21.20
2018-11-07T17:08:42.777Z,21.07
2018-11-07T17:11:12.821Z,22.23
2018-11-07T17:13:42.615Z,23.30
2018-11-07T17:16:12.797Z,28.80
2018-11-07T17:18:42.830Z,23.93
2018-11-07T17:21:12.771Z,15.23
2018-11-07T17:23:42.482Z,27.33
2018-11-07T17:26:12.719Z,17.77
2018-11-07T17:28:43.020Z,20.47
2018-11-07T17:31:13.467Z,14.90
2018-11-07T17:33:42.928Z,20.93
2018-11-07T17:36:12.759Z,17.90
2018-11-07T17:38:42.582Z,19.40
2018-11-07T17:41:12.683Z,18.43
2018-11-07T17:43:42.872Z,18.20
2018-11-07T17:46:12.541Z,17.87
2018-11-07T17:48:42.472Z,16.20
2018-11-07T17:51:12.672Z,19.80
2018-11-07T17:53:42.718Z,27.47
2018-11-07T17:56:13.262Z,17.40
2018-11-07T17:58:42.768Z,30.13
2018-11-07T18:01:12.696Z,16.20
2018-11-07T18:06:15.982Z,18.03
2018-11-07T18:08:53.057Z,24.40
2018-11-07T18:11:16.248Z,19.53
2018-11-07T18:13:46.773Z,19.47
2018-11-07T18:16:16.678Z,20.60
2018-11-07T18:18:47.477Z,20.93
2018-11-07T18:21:16.935Z,25.73
2018-11-07T18:23:46.751Z,15.90
2018-11-07T18:26:16.196Z,17.53
2018-11-07T18:28:48.068Z,18.27
2018-11-07T18:31:18.230Z,19.33
2018-11-07T18:33:48.170Z,28.23
2018-11-07T18:36:18.353Z,19.80
2018-11-07T18:38:48.266Z,25.10
2018-11-07T18:41:17.937Z,19.23
2018-11-07T18:43:56.826Z,24.50
2018-11-07T18:46:26.612Z,21.20
2018-11-07T18:48:56.162Z,21.10
2018-11-07T18:51:25.942Z,27.20
2018-11-07T18:53:55.660Z,28.57
2018-11-07T18:56:25.785Z,23.53
2018-11-07T18:58:56.247Z,17.63
2018-11-07T19:01:25.518Z,16.00
2018-11-07T19:03:54.987Z,16.87
2018-11-07T19:06:24.621Z,25.57
2018-11-07T19:08:54.283Z,29.13
2018-11-07T19:11:23.805Z,36.90
2018-11-07T19:13:53.222Z,22.97
2018-11-07T19:16:23.334Z,24.07
2018-11-07T19:18:53.405Z,24.20
2018-11-07T19:21:23.781Z,23.83
2018-11-07T19:23:53.684Z,23.77
2018-11-07T19:26:23.599Z,19.70
2018-11-07T19:28:53.450Z,26.50
2018-11-07T19:31:23.203Z,29.53
2018-11-07T19:33:53.148Z,24.63
2018-11-07T19:36:23.013Z,22.80
2018-11-07T19:38:52.952Z,21.60
2018-11-07T19:41:23.498Z,21.53
2018-11-07T19:43:53.651Z,21.53
2018-11-07T19:46:23.478Z,25.20
2018-11-07T19:48:53.865Z,18.50
2018-11-07T19:51:23.822Z,29.90
2018-11-07T19:53:54.003Z,21.80
2018-11-07T19:56:23.438Z,26.87
2018-11-07T19:58:54.517Z,22.43
2018-11-07T20:01:24.090Z,22.27
2018-11-07T20:03:53.635Z,26.40
2018-11-07T20:06:23.173Z,23.27
2018-11-07T20:08:53.430Z,21.43
2018-11-07T20:11:23.618Z,21.80
2018-11-07T20:13:53.110Z,22.57
2018-11-07T20:16:32.064Z,18.27
2018-11-07T20:19:02.131Z,21.00
2018-11-07T20:21:33.308Z,15.10
2018-11-07T20:24:03.670Z,16.43
2018-11-07T20:26:33.941Z,21.00
2018-11-07T20:29:05.265Z,24.27
2018-11-07T20:31:34.888Z,25.57
2018-11-07T20:34:05.331Z,23.20
2018-11-07T20:36:35.790Z,24.90
2018-11-07T20:39:07.581Z,21.13
2018-11-07T20:41:38.340Z,23.90
2018-11-07T20:44:08.683Z,16.73
2018-11-07T20:46:38.902Z,37.30
2018-11-07T20:49:08.987Z,25.57
2018-11-07T20:51:39.157Z,23.63
2018-11-07T20:54:09.316Z,27.23
2018-11-07T20:56:39.132Z,34.67
2018-11-07T20:59:09.123Z,33.03
2018-11-07T21:01:39.069Z,43.47
2018-11-07T21:04:08.949Z,38.20
2018-11-07T21:06:38.833Z,39.50
2018-11-07T21:09:10.931Z,39.83
2018-11-07T21:11:40.576Z,26.93
2018-11-07T21:14:10.123Z,32.60
2018-11-07T21:16:39.709Z,34.67
2018-11-07T21:19:09.448Z,44.27
2018-11-07T21:21:38.924Z,37.27
2018-11-07T21:24:08.385Z,45.40
2018-11-07T21:26:37.881Z,45.50
2018-11-07T21:29:07.825Z,41.50
2018-11-07T21:31:38.096Z,44.70
2018-11-07T21:34:07.602Z,46.27
2018-11-07T21:36:37.109Z,39.27
2018-11-07T21:39:10.195Z,53.53
2018-11-07T21:41:40.265Z,37.70
2018-11-07T21:44:09.833Z,38.63
2018-11-07T21:46:39.355Z,38.20
2018-11-07T21:49:10.456Z,35.57
2018-11-07T21:51:40.224Z,43.10
2018-11-07T21:54:10.031Z,35.90
2018-11-07T21:56:40.630Z,35.13
2018-11-07T21:59:14.012Z,35.00
2018-11-07T22:01:44.482Z,39.43
2018-11-07T22:04:14.417Z,37.83
2018-11-07T22:06:44.307Z,37.73
2018-11-07T22:09:13.762Z,41.20
2018-11-07T22:11:46.595Z,37.77
2018-11-07T22:14:21.408Z,39.50
2018-11-07T22:16:52.853Z,48.23
2018-11-07T22:19:23.005Z,42.40
2018-11-07T22:21:53.431Z,46.87
2018-11-07T22:24:24.511Z,38.70
2018-11-07T22:26:54.588Z,41.10
2018-11-07T22:29:24.412Z,44.63
2018-11-07T22:31:53.929Z,50.93
2018-11-07T22:34:23.374Z,41.47
2018-11-07T22:36:53.683Z,34.80
2018-11-07T22:39:23.156Z,49.50
2018-11-07T22:41:52.673Z,46.23
2018-11-07T22:44:23.162Z,38.70
2018-11-07T22:46:53.514Z,47.30
2018-11-07T22:49:23.307Z,41.13
2018-11-07T22:51:52.869Z,37.37
2018-11-07T22:54:22.794Z,37.50
2018-11-07T22:56:52.572Z,40.57
2018-11-07T22:59:22.720Z,37.63
2018-11-07T23:01:52.846Z,40.77
2018-11-07T23:04:22.600Z,46.57
2018-11-07T23:06:52.408Z,35.80
2018-11-07T23:09:21.874Z,33.50
2018-11-07T23:11:51.617Z,37.03
2018-11-07T23:14:21.865Z,34.67
2018-11-07T23:16:51.658Z,46.67
2018-11-07T23:19:21.510Z,39.90
2018-11-07T23:21:51.354Z,37.33
2018-11-07T23:24:21.501Z,40.97
2018-11-07T23:26:52.074Z,39.43
2018-11-07T23:29:22.296Z,38.00
2018-11-07T23:32:10.769Z,38.07
2018-11-07T23:34:40.582Z,41.70
2018-11-07T23:37:11.403Z,49.73
2018-11-07T23:39:41.460Z,48.00
2018-11-07T23:42:11.197Z,39.23
2018-11-07T23:44:40.640Z,45.37
2018-11-07T23:47:10.572Z,45.63
2018-11-07T23:49:40.382Z,41.27
2018-11-07T23:52:10.837Z,39.00
2018-11-07T23:54:40.645Z,44.93
2018-11-07T23:57:10.947Z,41.87
2018-11-07T23:59:40.697Z,36.63
